TYL Airport (Taylor) Information

FAA: TYL - ICAO: KTYL

TYL Airport Location

State Arizona
County Navajo
City Taylor
TYL Airport is 2 miles southwest of Taylor, AZ.
Latitude 34-27-09.8000N
Longitude 110-06-54.1000W
Elevation 5,823ft

KTYL Airport METARs

METAR KTYL 020215Z AUTO 29007KT 10SM CLR M02/M09 A3023 RMK AO2
Altimeter 30.23"
Temperature -2.0°C (28.4°F)
Wind 290° at 7KT
Clouds Skies are clear.
Visibility 10.0mi
Time observed: 2023-02-02T02:15:00Z

TYL Airport Details

Status Operational
Activation June 1976
Ownership Public
Usage Public
Chart PHOENIX
ATC on-site No
Beacon schedule sunset-sunrise
Beacon color clear green

TYL Airport Contacts

Owner TOWN OF TAYLOR
Owner address BOX 158, TAYLOR, AZ 85939
Owner phone 520-536-7366
Manager JAMES MOULDER
Manager address 29916 NORTH 165TH AVE., SURPRISE, AZ 85387
Manager phone 623-546-2943

TYL Airport (Taylor) Radio Frequencies

TYL (Airport) Radio Frequencies

UNICOM 122.7
Common traffic advisory frequency (CTAF) 122.7